• Join FlightAware (Why Join?)
  • Login
  • US Flag 
11:37PM EST


 

Airport Tracker/Info


-or-


 

Live Flight TrackerFlight Track Log ✈ UAL538 ✈ 23-Apr-2013 ✈ KPHX - KDEN

Flight Track Log - Related Links

Times and Time Zones

All times are in EDT time to prevent confusion due to time zone crossing. See the UAL538 flight status page for this flight to view local times or setup timezone preferences in your user account.

Time Position Orientation Groundspeed Altitude Reporting Facility
EDT Latitude Longitude Course Direction KTS MPH feet Rate Location/Type
07:14PM 33.4333 -112.0333 20° North 258 297 2,000  Level Phoenix TRACON
07:16PM 33.4339 -112.1269 270° West 212 244 3,700 1,860 Climbing Albuquerque Center
07:17PM 33.4656 -112.1925 300° West 255 293 7,000 3,000 Climbing Albuquerque Center
07:18PM 33.8617 -111.8158 20° North  Level FlightAware Approximate
07:18PM 33.5322 -112.1528 26° Northeast 278 320 10,000  Level Albuquerque Center
07:19PM 33.9690 -111.7689 20° North  Level FlightAware Approximate
07:19PM 33.6106 -112.0933 32° Northeast 347 399 11,400  Level Albuquerque Center
07:20PM 33.7142 -112.0064 35° Northeast 379 436 15,700 3,600 Climbing Albuquerque Center
07:21PM 33.8047 -111.9336 34° Northeast 389 448 18,900 2,820 Climbing Albuquerque Center
07:22PM 33.9064 -111.8494 34° Northeast 405 466 21,600 2,760 Climbing Albuquerque Center
07:23PM 34.0053 -111.7667 35° Northeast 430 495 24,600 1,980 Climbing Albuquerque Center
07:24PM 34.1100 -111.7031 27° Northeast 428 493 25,700 900 Climbing Albuquerque Center
07:25PM 34.2303 -111.6589 17° North 448 516 26,500 840 Climbing Albuquerque Center
07:26PM 34.3522 -111.6114 18° North 457 526 27,500 900 Climbing Albuquerque Center
07:27PM 34.4731 -111.5631 18° North 458 527 28,400 1,080 Climbing Albuquerque Center
07:28PM 34.5864 -111.4761 32° Northeast 479 551 29,800 1,200 Climbing Albuquerque Center
07:29PM 34.6753 -111.3467 50° Northeast 492 566 30,900 960 Climbing Albuquerque Center
07:30PM 34.7656 -111.2194 49° Northeast 497 572 31,800 960 Climbing Albuquerque Center
07:31PM 34.8739 -111.0644 50° Northeast 500 575 32,900 720 Climbing Albuquerque Center
07:32PM 34.9661 -110.9344 49° Northeast 506 582 33,300 600 Climbing Albuquerque Center
07:33PM 35.0572 -110.8014 50° Northeast 510 587 34,200 780 Climbing Albuquerque Center
07:34PM 35.1536 -110.6594 50° Northeast 500 575 35,000 360 Climbing Albuquerque Center
07:35PM 35.2456 -110.5469 45° Northeast 491 565 35,000  Level Albuquerque Center
07:36PM 35.3533 -110.4133 45° Northeast 492 566 35,000  Level Albuquerque Center
07:37PM 35.4458 -110.3006 45° Northeast 491 565 35,000  Level Albuquerque Center
07:38PM 35.5369 -110.1836 46° Northeast 494 568 35,000  Level Albuquerque Center
07:39PM 35.6442 -110.0483 46° Northeast 493 567 35,000  Level Albuquerque Center
07:40PM 35.7358 -109.9336 45° Northeast 493 567 35,000  Level Albuquerque Center
07:41PM 35.8425 -109.7978 46° Northeast 493 567 35,000  Level Albuquerque Center
07:42PM 35.9344 -109.6794 46° Northeast 496 571 35,100 60 Climbing Albuquerque Center
07:43PM 35.9800 -109.6214 46° Northeast 499 574 35,100 -120 Level Denver Center
07:44PM 36.0719 -109.5025 46° Northeast 497 572 35,000 -60 Descending Denver Center
07:45PM 36.1803 -109.3647 46° Northeast 497 572 35,000  Level Denver Center
07:46PM 36.2733 -109.2428 47° Northeast 502 578 35,000  Level Denver Center
07:47PM 36.3678 -109.1219 46° Northeast 504 580 35,000  Level Denver Center
07:48PM 36.4758 -108.9786 47° Northeast 504 580 35,000  Level Denver Center
07:49PM 36.5694 -108.8572 46° Northeast 504 580 35,000  Level Denver Center
07:50PM 36.6731 -108.7192 47° Northeast 487 560 35,000  Level Denver Center
07:51PM 36.7608 -108.6044 46° Northeast 478 550 35,000  Level Denver Center
07:52PM 36.8631 -108.4686 47° Northeast 480 552 35,000  Level Denver Center
07:53PM 36.9503 -108.3539 46° Northeast 475 547 35,000 -300 Level Denver Center
07:54PM 37.0528 -108.2167 47° Northeast 481 554 34,500 -720 Descending Denver Center
07:55PM 37.1419 -108.0981 47° Northeast 489 563 33,600 -780 Descending Denver Center
07:56PM 37.2297 -107.9808 47° Northeast 483 556 33,000 -300 Descending Denver Center
07:57PM 37.3278 -107.8481 47° Northeast 468 539 33,000  Level Denver Center
07:58PM 37.4144 -107.7303 47° Northeast 475 547 33,000  Level Denver Center
07:59PM 37.5175 -107.5911 47° Northeast 485 558 33,100  Climbing Denver Center
08:00PM 37.6047 -107.4697 48° Northeast 488 562 33,100 -60 Level Denver Center
08:01PM 37.7072 -107.3297 47° Northeast 484 557 33,000 -60 Descending Denver Center
08:02PM 37.7914 -107.2128 48° Northeast 474 545 33,000  Level Denver Center
08:03PM 37.8842 -107.0861 47° Northeast 462 532 33,000  Level Denver Center
08:04PM 37.9819 -106.9494 48° Northeast 469 540 33,000  Level Denver Center
08:06PM 38.0633 -106.8336 48° Northeast 463 533 33,000  Level Denver Center
08:07PM 38.1478 -106.7181 47° Northeast 466 536 33,000  Level Denver Center
08:08PM 38.2447 -106.5839 47° Northeast 461 531 33,000  Level Denver Center
08:09PM 38.3314 -106.4775 44° Northeast 465 535 33,000  Level Denver Center
08:10PM 38.4242 -106.3606 45° Northeast 470 541 33,000 -120 Level Denver Center
08:11PM 38.5367 -106.2206 44° Northeast 470 541 32,800 -540 Descending Denver Center
08:12PM 38.6325 -106.1006 44° Northeast 465 535 31,900 -1,020 Descending Denver Center
08:13PM 38.7256 -105.9839 44° Northeast 464 534 30,800 -1,680 Descending Denver Center
08:14PM 38.8178 -105.8658 45° Northeast 466 536 28,500 -2,280 Descending Denver Center
08:15PM 38.9092 -105.7508 44° Northeast 446 513 26,200 -2,040 Descending Denver Center
08:16PM 38.9903 -105.6467 45° Northeast 435 501 24,300 -1,980 Descending Denver Center
08:17PM 39.0803 -105.5325 45° Northeast 412 474 22,200 -1,800 Descending Denver Center
08:18PM 39.1625 -105.4281 45° Northeast 407 468 20,700 -1,500 Descending Denver Center
08:19PM 39.2406 -105.3264 45° Northeast 370 426 19,200 -1,320 Descending Denver Center
08:20PM 39.2767 -105.2106 68° East 364 419 18,000 -1,320 Descending Denver Center
08:21PM 39.2989 -105.0911 76° East 348 400 16,500 -1,680 Descending Denver Center
08:22PM 39.3217 -104.9653 77° East 340 391 14,600 -1,260 Descending Denver Center
08:23PM 39.3408 -104.8675 76° East 289 333 13,900 -780 Descending Denver Center
08:24PM 39.3656 -104.7686 72° East 269 310 13,000 -600 Descending Denver Center
08:25PM 39.4022 -104.6867 60° Northeast 272 313 12,700 -480 Descending Denver Center
08:26PM 39.4681 -104.6661 14° North 235 270 12,100 -540 Descending Denver Center
08:27PM 39.5325 -104.6644 North 234 269 11,600 -1,020 Descending Denver Center
08:28PM 39.6006 -104.6631 North 229 264 10,000 -1,080 Descending Denver Center
08:29PM 39.6639 -104.6619 North 228 262 9,400 -720 Descending Denver Center
08:30PM 39.7150 -104.6617 360° North 179 206 8,600 -1,320 Descending Denver Center
08:31PM 39.7656 -104.6611 360° North 170 196 6,800 -1,320 Descending Denver Center
08:32PM 39.8075 -104.6606 North 152 175 5,900 -720 Descending Denver Center
08:33PM 39.8469 -104.6617 359° North 143 165 5,400 -540 Descending Denver Center